Time;durP1;ratioP1;P1;durP2;ratioP2;P2;SDS_P1;SDS_P2;PMS_P1;PMS_P2;Temp;Humidity;BMP_temperature;BMP_pressure;BME280_temperature;BME280_humidity;BME280_pressure;Samples;Min_cycle;Max_cycle;Signal;HPM_P1;HPM_P2
2021/07/20 00:01:59;;;;;;;132.63;11.73;;;;;;;18.63;68.95;98101.41;5066063;28;20044;-69
2021/07/20 00:04:25;;;;;;;117.90;11.35;;;;;;;18.58;68.39;98108.00;5066659;28;20081;-69
2021/07/20 00:06:50;;;;;;;132.10;12.10;;;;;;;18.81;67.47;98103.72;5067895;28;20412;-69
2021/07/20 00:09:15;;;;;;;140.80;11.55;;;;;;;19.56;66.56;98100.75;5068028;28;20073;-69
2021/07/20 00:11:41;;;;;;;130.80;11.57;;;;;;;19.60;64.80;98091.63;5070651;28;20106;-68
2021/07/20 00:14:06;;;;;;;121.43;11.35;;;;;;;19.25;66.13;98092.50;5068848;28;20027;-70
2021/07/20 00:16:32;;;;;;;124.00;11.70;;;;;;;19.03;65.98;98093.25;5068471;28;20490;-71
2021/07/20 00:18:57;;;;;;;103.43;10.93;;;;;;;19.12;64.48;98097.03;5066230;28;20594;-69
2021/07/20 00:21:23;;;;;;;119.75;12.00;;;;;;;18.27;66.90;98095.19;5067721;28;20391;-70
2021/07/20 00:23:50;;;;;;;137.55;12.40;;;;;;;18.00;69.32;98094.50;5068565;28;20067;-69
2021/07/20 00:26:17;;;;;;;131.25;12.45;;;;;;;17.91;70.83;98094.19;5065742;28;20090;-71
2021/07/20 00:28:43;;;;;;;106.72;11.38;;;;;;;18.13;70.18;98097.97;5062043;28;20044;-70
2021/07/20 00:31:08;;;;;;;103.88;11.02;;;;;;;18.01;71.50;98098.81;5069194;28;20147;-68
2021/07/20 00:33:33;;;;;;;119.00;11.73;;;;;;;18.01;70.81;98093.53;5067002;28;20097;-69
2021/07/20 00:35:59;;;;;;;137.27;12.52;;;;;;;18.45;69.85;98086.91;5068409;28;20052;-71
2021/07/20 00:38:26;;;;;;;119.53;11.70;;;;;;;18.11;71.21;98089.31;5069908;28;20020;-72
2021/07/20 00:40:51;;;;;;;124.60;11.90;;;;;;;17.78;72.98;98093.31;5066494;28;20116;-71
2021/07/20 00:43:16;;;;;;;127.25;12.10;;;;;;;17.68;73.24;98092.25;5065201;28;20139;-72
2021/07/20 00:45:42;;;;;;;125.35;11.18;;;;;;;17.53;74.43;98088.88;5065897;28;20123;-71
2021/07/20 00:48:07;;;;;;;118.70;11.07;;;;;;;17.49;74.47;98092.66;5068546;28;20118;-68
2021/07/20 00:50:39;;;;;;;124.97;11.52;;;;;;;17.47;74.33;98084.84;5066126;28;20143;-69
2021/07/20 00:53:05;;;;;;;116.30;11.52;;;;;;;17.42;74.63;98092.22;5067995;28;20455;-70
2021/07/20 00:55:35;;;;;;;132.73;12.10;;;;;;;17.41;74.60;98095.81;5067660;28;20046;-71
2021/07/20 00:58:02;;;;;;;120.80;11.73;;;;;;;17.43;73.86;98093.94;5067862;28;20048;-72
2021/07/20 01:00:27;;;;;;;120.80;12.23;;;;;;;17.32;73.93;98099.09;5066118;28;20032;-72
2021/07/20 01:02:53;;;;;;;131.70;12.13;;;;;;;17.26;74.11;98099.47;5068662;28;20150;-69
2021/07/20 01:05:21;;;;;;;107.00;11.18;;;;;;;17.23;74.55;98102.34;5068085;28;20524;-68
2021/07/20 01:07:47;;;;;;;137.32;13.13;;;;;;;17.24;74.85;98104.00;5064618;28;20507;-70
2021/07/20 01:10:14;;;;;;;122.30;12.38;;;;;;;17.07;75.33;98103.34;5063010;28;20591;-70
2021/07/20 01:12:42;;;;;;;119.47;11.85;;;;;;;17.02;75.99;98108.09;5065511;28;20024;-70
2021/07/20 01:15:09;;;;;;;125.35;11.57;;;;;;;17.06;76.07;98104.28;5066130;28;20108;-70
2021/07/20 01:17:36;;;;;;;117.38;11.23;;;;;;;16.92;75.29;98105.19;5065655;28;20033;-70
2021/07/20 01:20:07;;;;;;;108.65;10.68;;;;;;;17.68;74.55;98108.06;5066561;28;20089;-70
2021/07/20 01:22:35;;;;;;;118.70;10.80;;;;;;;17.93;73.27;98102.00;5065806;28;20086;-69
2021/07/20 01:25:01;;;;;;;121.50;10.95;;;;;;;18.47;73.42;98095.56;5063802;28;20330;-71
2021/07/20 01:27:28;;;;;;;108.97;10.90;;;;;;;18.26;71.77;98097.94;5064629;28;20040;-70
2021/07/20 01:29:55;;;;;;;132.13;11.50;;;;;;;17.77;70.94;98096.91;5068095;28;20485;-70
2021/07/20 01:32:21;;;;;;;147.02;12.30;;;;;;;17.36;71.28;98095.28;5065868;28;20134;-68
2021/07/20 01:34:48;;;;;;;118.15;11.60;;;;;;;17.25;71.25;98095.16;5065699;28;20028;-69
2021/07/20 01:37:16;;;;;;;118.53;11.60;;;;;;;16.99;73.05;98096.91;5064876;28;20052;-69
2021/07/20 01:39:42;;;;;;;131.90;11.85;;;;;;;16.81;73.85;98112.06;5067755;28;20028;-70
2021/07/20 01:42:09;;;;;;;133.07;11.65;;;;;;;16.99;74.25;98103.00;5070068;28;20044;-71
2021/07/20 01:44:35;;;;;;;102.70;10.55;;;;;;;17.29;75.17;98110.66;5067180;28;20810;-71
2021/07/20 01:47:01;;;;;;;117.25;10.80;;;;;;;17.34;74.39;98105.09;5062855;28;20530;-69
2021/07/20 01:49:27;;;;;;;128.90;11.05;;;;;;;17.52;75.39;98108.28;5065722;28;20023;-70
2021/07/20 01:51:54;;;;;;;122.72;10.70;;;;;;;18.21;74.37;98106.19;5068098;28;20106;-69
2021/07/20 01:54:20;;;;;;;125.32;10.88;;;;;;;18.50;73.17;98105.91;5067101;28;20035;-70
2021/07/20 01:56:48;;;;;;;129.73;11.35;;;;;;;18.09;70.16;98107.91;5065025;28;20041;-69
2021/07/20 01:59:14;;;;;;;135.48;11.20;;;;;;;18.07;71.71;98107.16;5061194;28;20024;-70
2021/07/20 02:04:49;;;;;;;107.47;10.18;;;;;;;17.01;74.05;98109.00;5063044;28;20468;-70
2021/07/20 02:10:17;;;;;;;112.28;10.15;;;;;;;17.10;74.49;98113.69;5021354;28;20029;-69
2021/07/20 02:12:44;;;;;;;130.77;11.40;;;;;;;17.29;74.42;98110.66;5055949;28;20036;-70
2021/07/20 02:15:10;;;;;;;118.25;11.02;;;;;;;17.22;74.48;98116.44;5065106;28;20020;-69
2021/07/20 02:17:39;;;;;;;141.60;12.02;;;;;;;17.21;75.31;98114.78;5064247;28;20024;-69
2021/07/20 02:20:12;;;;;;;107.88;10.23;;;;;;;17.04;75.08;98108.81;5066283;28;20028;-70
2021/07/20 02:22:38;;;;;;;111.18;10.95;;;;;;;16.88;75.30;98116.88;5065587;28;20073;-70
2021/07/20 02:25:06;;;;;;;125.47;11.60;;;;;;;16.65;76.09;98118.34;5066619;28;20500;-70
2021/07/20 02:27:32;;;;;;;118.88;11.35;;;;;;;16.90;74.77;98111.50;5066507;28;20036;-70
2021/07/20 02:30:03;;;;;;;133.43;12.00;;;;;;;16.48;76.24;98122.03;5064540;28;20017;-69
2021/07/20 02:32:29;;;;;;;117.93;11.65;;;;;;;16.37;76.27;98124.50;5062045;28;20036;-69
2021/07/20 02:34:57;;;;;;;111.25;10.85;;;;;;;16.47;77.13;98119.47;5067073;28;20107;-70
2021/07/20 02:37:25;;;;;;;110.05;10.77;;;;;;;17.18;77.24;98114.97;5071308;28;20044;-70
2021/07/20 02:39:52;;;;;;;107.32;10.40;;;;;;;17.32;74.19;98109.63;5065925;28;20198;-69
2021/07/20 02:42:18;;;;;;;120.43;11.50;;;;;;;16.94;73.35;98111.19;5068060;28;20143;-69
2021/07/20 02:44:44;;;;;;;111.00;11.02;;;;;;;16.89;73.60;98120.34;5068540;28;20158;-68
2021/07/20 02:47:10;;;;;;;117.50;10.25;;;;;;;17.23;72.53;98123.44;5064077;28;20066;-70
2021/07/20 02:49:38;;;;;;;102.28;10.70;;;;;;;16.53;74.82;98130.47;5068024;28;20504;-69
2021/07/20 02:52:06;;;;;;;89.28;9.73;;;;;;;16.41;76.48;98128.63;5064267;28;20063;-70
2021/07/20 02:54:32;;;;;;;94.47;9.93;;;;;;;16.44;76.46;98119.69;5065625;28;20148;-69
2021/07/20 02:56:58;;;;;;;100.53;10.65;;;;;;;16.45;77.52;98126.63;5065549;28;20111;-70
2021/07/20 02:59:26;;;;;;;105.88;10.07;;;;;;;16.38;78.02;98127.03;5065426;28;20031;-69
2021/07/20 03:01:54;;;;;;;119.95;10.52;;;;;;;16.57;77.67;98126.72;5058698;28;20115;-69
2021/07/20 03:04:19;;;;;;;118.55;10.88;;;;;;;16.58;77.82;98127.56;5069817;28;20024;-70
2021/07/20 03:06:51;;;;;;;122.32;11.32;;;;;;;16.71;76.92;98117.09;5066968;28;20102;-70
2021/07/20 03:09:18;;;;;;;121.82;11.15;;;;;;;16.80;76.44;98123.53;5067147;28;20024;-69
2021/07/20 03:11:47;;;;;;;114.88;10.23;;;;;;;16.79;78.37;98121.88;5068043;28;20517;-68
2021/07/20 03:14:18;;;;;;;115.05;10.32;;;;;;;17.91;75.51;98115.28;5067124;28;20032;-68
2021/07/20 03:16:45;;;;;;;117.50;10.02;;;;;;;18.08;74.65;98121.19;5069022;28;20036;-69
2021/07/20 03:19:12;;;;;;;104.65;9.73;;;;;;;18.18;73.65;98119.59;5070824;28;20524;-70
2021/07/20 03:21:40;;;;;;;121.70;11.35;;;;;;;17.81;72.42;98119.50;5068873;28;20546;-70
2021/07/20 03:24:08;;;;;;;91.10;9.18;;;;;;;18.04;73.65;98114.44;5066666;28;20021;-70
2021/07/20 03:26:34;;;;;;;104.78;9.93;;;;;;;18.43;73.47;98112.59;5066416;28;20044;-70
2021/07/20 03:29:03;;;;;;;113.25;10.65;;;;;;;18.03;71.59;98104.81;5068857;28;20040;-69
2021/07/20 03:31:29;;;;;;;113.10;10.93;;;;;;;16.71;74.85;98112.66;5070031;28;20505;-71
2021/07/20 03:33:57;;;;;;;121.00;10.90;;;;;;;16.33;76.83;98115.94;5069561;28;20027;-71
2021/07/20 03:36:24;;;;;;;121.75;11.20;;;;;;;15.94;78.34;98114.84;5067938;28;20549;-71
2021/07/20 03:38:50;;;;;;;129.77;11.07;;;;;;;15.75;79.19;98122.13;5067209;28;20401;-72
2021/07/20 03:41:15;;;;;;;143.38;11.80;;;;;;;15.71;79.08;98125.88;5069878;28;20044;-68
2021/07/20 03:43:41;;;;;;;113.80;10.27;;;;;;;16.81;78.12;98119.97;5069283;28;20301;-69
2021/07/20 03:46:06;;;;;;;108.57;9.98;;;;;;;17.02;75.90;98116.00;5069195;28;20425;-68
2021/07/20 03:48:32;;;;;;;100.15;9.85;;;;;;;17.34;75.87;98111.22;5070102;28;20117;-70
2021/07/20 03:50:58;;;;;;;119.22;11.82;;;;;;;16.44;75.83;98119.69;5069737;28;20400;-69
2021/07/20 03:53:26;;;;;;;102.95;10.77;;;;;;;15.89;78.55;98124.78;5066809;28;20020;-68
2021/07/20 03:55:54;;;;;;;123.43;11.50;;;;;;;16.02;78.61;98124.06;5066372;28;20043;-72
2021/07/20 03:58:20;;;;;;;107.78;11.23;;;;;;;15.80;78.52;98130.59;5069978;28;20028;-71
2021/07/20 04:00:52;;;;;;;99.47;9.88;;;;;;;16.89;77.69;98115.94;5068077;28;20090;-70
2021/07/20 04:03:22;;;;;;;100.40;10.80;;;;;;;16.37;76.11;98119.22;5067061;28;20047;-71
2021/07/20 04:05:50;;;;;;;130.18;12.23;;;;;;;16.77;75.46;98117.53;5069082;28;20589;-70
2021/07/20 04:08:19;;;;;;;119.63;11.32;;;;;;;16.03;76.85;98120.47;5067959;28;20127;-69
2021/07/20 04:10:46;;;;;;;117.00;11.35;;;;;;;15.77;77.96;98121.13;5069312;28;20036;-70
2021/07/20 04:13:13;;;;;;;113.32;11.57;;;;;;;15.63;78.69;98128.13;5068824;28;20474;-71
2021/07/20 04:15:47;;;;;;;89.60;10.07;;;;;;;15.92;78.38;98124.63;5070775;28;20434;-71
2021/07/20 04:18:13;;;;;;;122.85;11.13;;;;;;;15.81;77.57;98124.41;5068554;28;20020;-70
2021/07/20 04:20:40;;;;;;;104.15;10.10;;;;;;;15.98;78.32;98126.03;5064654;28;20699;-70
2021/07/20 04:23:09;;;;;;;99.13;10.02;;;;;;;15.75;79.17;98124.78;5067498;28;20028;-69
2021/07/20 04:25:36;;;;;;;108.85;10.32;;;;;;;15.73;79.47;98124.00;5066916;28;20063;-69
2021/07/20 04:28:02;;;;;;;108.43;10.32;;;;;;;15.79;78.34;98119.25;5065407;28;20054;-69
2021/07/20 04:30:28;;;;;;;112.10;11.07;;;;;;;15.77;78.92;98125.56;5068215;28;20089;-71
2021/07/20 04:32:55;;;;;;;123.80;10.93;;;;;;;15.72;80.33;98127.56;5067028;28;20422;-71
2021/07/20 04:35:22;;;;;;;99.25;10.05;;;;;;;15.90;78.36;98129.13;5065311;28;20084;-71
2021/07/20 04:37:51;;;;;;;142.00;11.93;;;;;;;15.97;79.39;98127.81;5066735;28;20021;-70
2021/07/20 04:40:16;;;;;;;117.25;10.55;;;;;;;16.04;77.72;98130.06;5068253;28;20634;-70
2021/07/20 04:42:43;;;;;;;122.40;10.80;;;;;;;16.09;78.69;98131.47;5065654;28;20027;-72
2021/07/20 04:45:10;;;;;;;105.68;10.25;;;;;;;16.21;79.06;98143.03;5064111;28;20115;-70
2021/07/20 04:47:37;;;;;;;134.15;11.52;;;;;;;15.96;78.77;98147.16;5064894;28;20020;-71
2021/07/20 04:50:06;;;;;;;115.53;10.55;;;;;;;16.16;79.78;98139.84;5064506;28;20103;-70
2021/07/20 04:52:32;;;;;;;105.18;10.43;;;;;;;16.02;77.81;98145.09;5066644;28;20032;-70
2021/07/20 04:54:59;;;;;;;110.05;10.85;;;;;;;16.07;77.04;98146.50;5066955;28;20032;-70
2021/07/20 04:57:24;;;;;;;120.07;10.82;;;;;;;16.08;77.53;98145.59;5067812;28;20032;-70
2021/07/20 04:59:49;;;;;;;114.47;11.38;;;;;;;16.04;77.25;98145.84;5064226;28;20031;-70
2021/07/20 05:02:15;;;;;;;117.28;11.32;;;;;;;16.04;77.46;98157.22;5056304;28;20050;-70
2021/07/20 05:04:42;;;;;;;95.72;10.93;;;;;;;16.16;77.84;98159.09;5062999;28;20113;-70
2021/07/20 05:07:13;;;;;;;84.13;10.20;;;;;;;16.19;78.11;98164.19;5058150;28;20409;-69
2021/07/20 05:09:39;;;;;;;95.82;10.43;;;;;;;16.21;77.83;98171.13;5068317;28;20032;-69
2021/07/20 05:12:05;;;;;;;98.18;10.43;;;;;;;16.26;78.05;98167.25;5068224;28;20716;-70
2021/07/20 05:14:31;;;;;;;90.63;9.73;;;;;;;16.40;77.88;98171.69;5070109;28;20028;-69
2021/07/20 05:16:57;;;;;;;88.13;9.95;;;;;;;16.75;77.70;98166.00;5069212;28;20125;-70
2021/07/20 05:19:23;;;;;;;145.65;12.52;;;;;;;16.80;77.31;98166.56;5064409;28;20762;-70
2021/07/20 05:21:49;;;;;;;105.68;10.57;;;;;;;16.73;76.72;98167.88;5065845;28;20119;-70
2021/07/20 05:24:15;;;;;;;104.90;10.55;;;;;;;16.70;77.02;98168.91;5065121;28;20051;-69
2021/07/20 05:26:45;;;;;;;115.88;11.75;;;;;;;16.69;76.31;98171.63;5064622;28;20111;-70
2021/07/20 05:29:16;;;;;;;94.85;11.15;;;;;;;16.77;77.54;98175.47;5066521;28;20374;-70
2021/07/20 05:31:44;;;;;;;100.73;10.80;;;;;;;16.72;75.91;98171.44;5067298;28;20640;-69
2021/07/20 05:34:10;;;;;;;84.10;9.93;;;;;;;16.64;75.41;98164.03;5065509;28;20032;-71
2021/07/20 05:36:36;;;;;;;81.07;9.32;;;;;;;16.89;75.57;98167.78;5067749;28;20418;-70
2021/07/20 05:39:01;;;;;;;90.63;10.25;;;;;;;16.98;74.73;98167.19;5068203;28;20029;-69
2021/07/20 05:41:28;;;;;;;103.93;10.65;;;;;;;17.17;77.02;98165.97;5068654;28;20044;-71
2021/07/20 05:43:55;;;;;;;92.97;10.48;;;;;;;17.25;78.94;98168.97;5068343;28;20032;-70
2021/07/20 05:46:21;;;;;;;90.43;10.55;;;;;;;17.51;78.53;98165.44;5067382;28;20040;-71
2021/07/20 05:48:51;;;;;;;118.85;12.05;;;;;;;17.80;79.44;98165.28;5060730;28;20038;-70
2021/07/20 05:51:18;;;;;;;106.82;11.43;;;;;;;18.22;78.69;98160.69;5068369;28;20413;-69
2021/07/20 05:53:44;;;;;;;101.20;10.38;;;;;;;18.35;77.31;98159.81;5067151;28;20021;-70
2021/07/20 05:56:10;;;;;;;86.10;9.80;;;;;;;18.01;75.83;98167.44;5068227;28;20040;-71
2021/07/20 05:58:36;;;;;;;87.80;9.57;;;;;;;18.20;75.53;98167.88;5069119;28;20149;-68
2021/07/20 06:01:04;;;;;;;86.53;9.88;;;;;;;18.25;73.25;98171.03;5066609;28;20040;-69
2021/07/20 06:03:32;;;;;;;96.25;10.32;;;;;;;18.25;74.64;98176.31;5070049;28;20028;-70
2021/07/20 06:05:58;;;;;;;84.90;9.60;;;;;;;18.49;74.00;98178.19;5066381;28;20589;-69
2021/07/20 06:08:26;;;;;;;97.07;10.32;;;;;;;18.55;72.86;98177.75;5067894;28;20035;-68
2021/07/20 06:10:55;;;;;;;100.05;10.23;;;;;;;18.76;74.26;98177.16;5065582;28;20042;-70
2021/07/20 06:13:26;;;;;;;86.43;9.27;;;;;;;18.63;72.61;98180.69;5066639;28;20019;-70
2021/07/20 06:15:52;;;;;;;104.60;9.88;;;;;;;18.78;70.23;98184.03;5068993;28;20178;-70
2021/07/20 06:18:17;;;;;;;86.93;9.40;;;;;;;19.11;71.00;98185.22;5066507;28;20040;-70
2021/07/20 06:20:49;;;;;;;87.43;9.45;;;;;;;18.76;67.25;98185.94;5064888;28;20041;-69
2021/07/20 06:23:15;;;;;;;101.80;9.77;;;;;;;19.71;71.39;98196.66;5068214;28;20113;-69
2021/07/20 06:25:42;;;;;;;91.00;9.45;;;;;;;19.81;70.59;98195.03;5066831;28;20071;-69
2021/07/20 06:28:08;;;;;;;88.40;9.32;;;;;;;19.05;67.93;98190.97;5066119;28;20041;-69
2021/07/20 06:30:34;;;;;;;85.32;9.18;;;;;;;18.81;68.30;98193.56;5066384;28;20040;-70
2021/07/20 06:33:00;;;;;;;91.95;9.32;;;;;;;18.92;68.81;98195.44;5066658;28;20151;-70
2021/07/20 06:35:26;;;;;;;79.32;8.88;;;;;;;19.10;67.35;98198.53;5065381;28;21594;-70
2021/07/20 06:37:52;;;;;;;106.15;9.73;;;;;;;20.07;68.77;98199.28;5070143;28;20076;-69
2021/07/20 06:40:19;;;;;;;92.57;8.85;;;;;;;20.26;67.73;98204.88;5067225;28;20077;-69
2021/07/20 06:42:46;;;;;;;103.43;9.50;;;;;;;20.29;63.62;98203.78;5066343;28;20013;-71
2021/07/20 06:45:13;;;;;;;90.40;8.85;;;;;;;20.48;65.65;98196.09;5065101;28;20024;-71
2021/07/20 06:47:41;;;;;;;112.82;10.07;;;;;;;19.77;67.00;98201.50;5062251;28;20032;-70
2021/07/20 06:50:11;;;;;;;90.40;8.63;;;;;;;20.35;66.48;98208.63;5062637;28;20021;-71
2021/07/20 06:52:37;;;;;;;75.70;8.70;;;;;;;20.45;64.93;98198.97;5065343;28;20063;-70
2021/07/20 06:55:07;;;;;;;150.65;11.38;;;;;;;20.07;64.13;98202.81;5066212;28;20506;-69
2021/07/20 06:57:36;;;;;;;80.50;8.30;;;;;;;20.56;63.88;98201.59;5066912;28;20123;-71
2021/07/20 07:00:04;;;;;;;82.43;8.25;;;;;;;20.64;61.95;98192.25;5066436;28;20016;-67
2021/07/20 07:02:30;;;;;;;81.53;8.63;;;;;;;20.48;63.21;98197.91;5067005;28;20074;-69
2021/07/20 07:05:09;;;;;;;97.13;8.80;;;;;;;20.51;64.33;98200.28;5068623;28;20092;-71
2021/07/20 07:07:36;;;;;;;100.78;9.27;;;;;;;21.57;61.81;98191.81;5068507;28;20046;-71
2021/07/20 07:10:03;;;;;;;84.18;8.15;;;;;;;21.51;61.79;98195.81;5068252;28;20127;-68
2021/07/20 07:12:31;;;;;;;82.25;8.45;;;;;;;21.52;59.97;98196.63;5069812;28;20049;-69
2021/07/20 07:14:58;;;;;;;85.68;8.15;;;;;;;22.06;59.52;98192.97;5067900;28;20024;-70
2021/07/20 07:17:24;;;;;;;88.63;8.10;;;;;;;21.16;58.75;98198.69;5068395;28;20669;-69
2021/07/20 07:19:52;;;;;;;94.28;8.63;;;;;;;21.92;59.28;98195.97;5066277;28;20043;-68
2021/07/20 07:22:20;;;;;;;91.88;8.65;;;;;;;21.08;59.64;98201.09;5065678;28;20674;-69
2021/07/20 07:24:48;;;;;;;86.47;8.13;;;;;;;20.79;57.33;98201.66;5066885;28;20024;-69
2021/07/20 07:27:15;;;;;;;81.32;7.95;;;;;;;21.87;59.65;98200.81;5066022;28;20423;-71
2021/07/20 07:29:42;;;;;;;90.22;8.68;;;;;;;21.21;58.22;98216.84;5065407;28;20064;-70
2021/07/20 07:32:08;;;;;;;76.30;7.78;;;;;;;22.21;58.45;98211.25;5065716;28;20120;-70
2021/07/20 07:34:35;;;;;;;90.18;8.35;;;;;;;21.96;58.98;98202.69;5066857;28;20537;-71
2021/07/20 07:37:02;;;;;;;66.95;7.93;;;;;;;21.20;56.21;98200.09;5068804;28;20040;-71
2021/07/20 07:39:28;;;;;;;85.25;8.68;;;;;;;21.04;58.42;98210.28;5067175;28;20157;-70
2021/07/20 07:41:55;;;;;;;95.40;8.48;;;;;;;21.09;60.72;98202.78;5064980;28;20048;-73
2021/07/20 07:44:22;;;;;;;79.30;7.65;;;;;;;21.60;58.03;98204.81;5065636;28;20103;-71
2021/07/20 07:46:51;;;;;;;103.35;9.05;;;;;;;21.66;58.09;98206.13;5066709;28;20092;-71
2021/07/20 07:49:17;;;;;;;88.88;8.20;;;;;;;22.09;56.15;98206.00;5066659;28;20079;-72
2021/07/20 07:51:44;;;;;;;98.25;8.68;;;;;;;21.74;57.38;98199.22;5066252;28;20051;-71
2021/07/20 07:54:11;;;;;;;94.43;8.45;;;;;;;22.67;57.04;98209.94;5068408;28;20026;-70
2021/07/20 07:56:38;;;;;;;83.55;8.05;;;;;;;22.20;56.48;98201.56;5069775;28;20033;-70
2021/07/20 07:59:04;;;;;;;91.18;8.30;;;;;;;21.17;56.51;98197.69;5068168;28;20513;-70
2021/07/20 08:01:32;;;;;;;89.40;8.68;;;;;;;21.58;57.95;98206.78;5070464;28;20755;-71
2021/07/20 08:03:59;;;;;;;90.88;8.35;;;;;;;21.36;56.19;98199.72;5068423;28;20039;-70
2021/07/20 08:06:29;;;;;;;92.63;7.90;;;;;;;22.07;56.25;98188.50;5068616;28;20538;-71
2021/07/20 08:09:04;;;;;;;98.85;9.02;;;;;;;20.88;55.85;98194.75;5070378;28;20060;-72
2021/07/20 08:11:31;;;;;;;89.03;8.25;;;;;;;21.11;56.18;98200.84;5068842;28;20052;-72
2021/07/20 08:14:01;;;;;;;88.47;8.30;;;;;;;21.40;56.84;98187.03;5067351;28;20025;-72
2021/07/20 08:16:35;;;;;;;77.03;7.70;;;;;;;22.29;58.25;98192.84;5068854;28;20043;-70
2021/07/20 08:19:04;;;;;;;80.65;8.05;;;;;;;23.08;55.71;98189.50;5070208;28;20025;-72
2021/07/20 08:21:29;;;;;;;69.28;7.38;;;;;;;23.05;54.30;98195.13;5069419;28;20692;-71
2021/07/20 08:23:56;;;;;;;88.07;7.80;;;;;;;23.11;52.66;98191.91;5068592;28;20461;-70
2021/07/20 08:26:28;;;;;;;93.22;8.15;;;;;;;22.11;53.81;98189.91;5067569;28;20040;-71
2021/07/20 08:29:06;;;;;;;95.07;9.07;;;;;;;23.20;51.74;98196.41;5066841;28;20108;-72
2021/07/20 08:31:45;;;;;;;86.22;8.27;;;;;;;22.87;49.15;98193.06;5071943;28;20032;-71
2021/07/20 08:34:13;;;;;;;84.10;8.02;;;;;;;22.68;52.04;98193.00;5069830;28;20061;-69
2021/07/20 08:36:40;;;;;;;80.28;7.57;;;;;;;22.78;52.35;98195.72;5070067;28;20728;-71
2021/07/20 08:39:08;;;;;;;70.97;7.68;;;;;;;22.66;54.12;98201.13;5069765;28;20424;-72
2021/07/20 08:42:00;;;;;;;85.15;8.13;;;;;;;22.68;50.38;98193.00;5067682;28;20037;-71
2021/07/20 08:46:06;;;;;;;89.70;8.52;;;;;;;21.46;52.35;98189.19;5058712;28;20419;-70
2021/07/20 08:48:44;;;;;;;99.97;8.40;;;;;;;22.90;53.18;98187.50;5027234;28;20037;-71
2021/07/20 08:51:15;;;;;;;89.10;8.55;;;;;;;21.83;51.42;98180.81;5036474;28;20553;-71
2021/07/20 08:53:51;;;;;;;78.20;7.80;;;;;;;23.22;51.98;98181.13;5045459;28;20071;-69
2021/07/20 08:56:22;;;;;;;98.72;9.15;;;;;;;21.86;51.26;98184.03;5044957;28;20037;-70
2021/07/20 08:58:59;;;;;;;96.93;8.80;;;;;;;22.85;53.50;98180.91;5043147;28;20040;-69
2021/07/20 09:01:43;;;;;;;107.68;9.50;;;;;;;23.38;50.31;98185.91;5046513;28;20047;-71
2021/07/20 09:04:18;;;;;;;83.88;8.30;;;;;;;23.89;49.73;98185.78;5045407;28;20037;-71
2021/07/20 09:06:49;;;;;;;95.57;9.30;;;;;;;23.42;50.23;98187.31;5042488;28;20396;-70
2021/07/20 09:09:29;;;;;;;82.45;8.77;;;;;;;23.42;49.32;98178.50;5044501;28;20136;-70
2021/07/20 09:12:02;;;;;;;105.97;9.57;;;;;;;23.06;52.21;98180.81;5045318;28;20094;-69
2021/07/20 09:14:33;;;;;;;94.57;9.25;;;;;;;22.76;55.53;98187.88;5047469;28;20024;-69
2021/07/20 09:17:25;;;;;;;80.50;9.07;;;;;;;22.80;53.65;98191.09;5045545;28;20052;-71
2021/07/20 09:20:09;;;;;;;107.60;13.57;;;;;;;22.31;54.07;98193.56;5037358;28;20041;-70
2021/07/20 09:22:44;;;;;;;96.75;9.65;;;;;;;21.84;59.09;98195.78;5046606;28;20847;-70
2021/07/20 09:25:38;;;;;;;84.47;9.35;;;;;;;21.82;56.55;98195.06;5046323;28;20036;-70
2021/07/20 09:28:14;;;;;;;99.10;9.55;;;;;;;22.89;52.25;98196.44;5045302;28;20025;-69
2021/07/20 09:30:49;;;;;;;86.63;8.93;;;;;;;23.73;52.38;98199.63;5044421;28;20041;-69
2021/07/20 09:34:06;;;;;;;81.68;8.85;;;;;;;23.64;52.34;98199.50;5045909;28;20028;-69
2021/07/20 09:37:04;;;;;;;95.20;9.00;;;;;;;23.73;51.22;98199.63;5004679;28;20041;-71
2021/07/20 09:39:35;;;;;;;84.13;8.77;;;;;;;23.59;51.22;98191.09;5014435;28;20144;-69
2021/07/20 09:42:43;;;;;;;93.13;9.48;;;;;;;22.54;52.54;98185.44;5044686;28;20069;-71
2021/07/20 09:45:12;;;;;;;74.53;8.70;;;;;;;21.92;53.95;98188.00;4998907;28;20041;-69
2021/07/20 09:48:04;;;;;;;106.38;10.48;;;;;;;22.19;55.65;98187.47;5041954;28;20033;-70
2021/07/20 09:50:37;;;;;;;81.93;9.83;;;;;;;22.09;54.34;98195.38;5042322;28;20064;-70
2021/07/20 09:53:42;;;;;;;82.28;8.48;;;;;;;23.25;53.36;98194.16;5042692;28;20028;-69
2021/07/20 09:56:35;;;;;;;98.78;10.05;;;;;;;23.39;51.10;98192.91;5035568;28;20037;-71
2021/07/20 09:59:20;;;;;;;87.20;9.57;;;;;;;22.96;48.85;98187.94;5033134;28;20051;-72
2021/07/20 10:01:52;;;;;;;99.78;10.23;;;;;;;22.91;48.60;98178.53;5030050;28;20541;-70
2021/07/20 10:04:57;;;;;;;100.15;9.95;;;;;;;22.59;48.57;98178.72;5033878;28;20033;-70
2021/07/20 10:07:22;;;;;;;100.20;10.02;;;;;;;23.84;50.15;98181.72;5030434;28;20099;-71
2021/07/20 10:09:53;;;;;;;93.47;9.77;;;;;;;23.03;49.54;98175.75;5032018;28;20493;-70
2021/07/20 10:12:28;;;;;;;75.53;9.00;;;;;;;22.87;51.75;98178.94;5033659;28;20294;-71
2021/07/20 10:15:07;;;;;;;94.05;11.77;;;;;;;22.67;54.84;98178.03;5035008;28;20025;-72
2021/07/20 10:17:59;;;;;;;91.05;11.65;;;;;;;22.81;52.60;98182.13;5030713;28;20041;-72
2021/07/20 10:20:31;;;;;;;;;;;;;;;23.13;50.52;98175.81;5031040;28;20036;-70
2021/07/20 10:23:22;;;;;;;94.47;10.27;;;;;;;23.64;47.78;98167.56;5028484;28;19924;-71
2021/07/20 10:25:58;;;;;;;91.28;9.15;;;;;;;23.79;49.55;98180.44;5029839;28;20092;-71
2021/07/20 10:28:31;;;;;;;78.85;9.05;;;;;;;23.67;51.05;98174.41;5031526;28;20033;-70
2021/07/20 10:31:11;;;;;;;93.07;9.80;;;;;;;23.47;48.73;98168.25;5030221;28;20033;-70
2021/07/20 10:33:42;;;;;;;83.47;9.65;;;;;;;22.78;53.62;98169.97;5032046;28;20025;-70
2021/07/20 10:36:17;;;;;;;86.22;9.50;;;;;;;23.38;52.24;98171.75;5033595;28;20048;-70
2021/07/20 10:39:09;;;;;;;93.10;10.30;;;;;;;22.21;57.36;98168.75;5033555;28;20029;-70
2021/07/20 10:41:40;;;;;;;94.38;9.80;;;;;;;21.94;53.82;98178.09;5031231;28;20379;-71
2021/07/20 10:44:19;;;;;;;79.63;8.82;;;;;;;23.01;53.29;98173.25;5029881;28;20387;-72
2021/07/20 10:46:48;;;;;;;89.00;9.82;;;;;;;23.33;49.84;98166.84;5031034;28;20864;-71
2021/07/20 10:49:27;;;;;;;100.90;10.20;;;;;;;23.31;47.63;98165.31;5030094;28;20085;-69
2021/07/20 10:52:19;;;;;;;99.32;9.93;;;;;;;23.28;52.00;98167.25;5030079;28;20026;-72
2021/07/20 10:54:51;;;;;;;90.90;10.25;;;;;;;23.42;51.66;98165.19;5019924;28;20141;-71
2021/07/20 10:57:24;;;;;;;101.80;9.65;;;;;;;24.00;49.88;98162.47;5028258;28;20037;-70
2021/07/20 11:00:12;;;;;;;83.00;8.90;;;;;;;24.25;49.20;98165.50;5028408;28;20491;-70
2021/07/20 11:03:21;;;;;;;80.78;9.02;;;;;;;23.75;51.64;98163.06;5031779;28;20061;-69
2021/07/20 11:05:51;;;;;;;85.95;9.68;;;;;;;23.57;52.02;98163.78;4981636;28;20465;-70
2021/07/20 11:08:18;;;;;;;81.05;9.52;;;;;;;22.46;51.79;98163.00;4980457;28;20065;-70
2021/07/20 11:10:53;;;;;;;89.20;9.82;;;;;;;22.25;52.04;98162.19;5007145;28;20919;-70
2021/07/20 11:13:30;;;;;;;76.25;9.30;;;;;;;22.93;51.41;98161.59;5034292;28;20051;-70
2021/07/20 11:15:58;;;;;;;97.15;10.13;;;;;;;22.58;55.29;98160.25;5029899;28;20096;-71
2021/07/20 11:18:30;;;;;;;88.50;9.55;;;;;;;22.51;53.35;98160.75;5030631;28;20036;-73
2021/07/20 11:21:00;;;;;;;73.68;8.85;;;;;;;23.15;48.87;98158.72;5029372;28;20041;-72
2021/07/20 11:23:33;;;;;;;85.00;9.25;;;;;;;22.84;50.33;98157.94;5032028;28;20585;-72
2021/07/20 11:26:00;;;;;;;92.18;9.77;;;;;;;22.78;49.44;98161.97;5028692;28;20033;-71
2021/07/20 11:28:26;;;;;;;88.78;9.35;;;;;;;22.14;53.40;98165.75;5029097;28;20491;-71
2021/07/20 11:30:55;;;;;;;88.68;9.50;;;;;;;21.98;53.50;98162.72;5030959;28;20123;-72
2021/07/20 11:33:41;;;;;;;77.72;9.55;;;;;;;22.32;53.49;98160.72;5030221;28;20036;-72
2021/07/20 11:36:10;;;;;;;73.03;8.88;;;;;;;22.28;53.32;98159.28;5027576;28;20033;-72
2021/07/20 11:38:37;;;;;;;82.88;9.25;;;;;;;22.46;55.27;98155.03;5029050;28;20124;-70